createdAt,value
2023-11-07T00:00:23.229Z,92.28
2023-11-07T00:02:54.608Z,91.90
2023-11-07T00:05:22.983Z,91.58
2023-11-07T00:07:51.074Z,91.63
2023-11-07T00:10:19.259Z,93.65
2023-11-07T00:12:49.552Z,92.97
2023-11-07T00:15:19.172Z,93.74
2023-11-07T00:17:49.808Z,92.27
2023-11-07T00:20:18.450Z,91.41
2023-11-07T00:22:46.487Z,92.10
2023-11-07T00:25:14.374Z,92.18
2023-11-07T00:27:42.396Z,91.88
2023-11-07T00:30:10.953Z,90.78
2023-11-07T00:32:39.737Z,91.17
2023-11-07T00:35:10.163Z,91.98
2023-11-07T00:37:38.203Z,92.50
2023-11-07T00:40:08.364Z,92.92
2023-11-07T00:42:37.078Z,92.26
2023-11-07T00:45:05.474Z,92.15
2023-11-07T00:47:34.328Z,92.11
2023-11-07T00:50:02.458Z,91.74
2023-11-07T00:52:31.647Z,91.55
2023-11-07T00:55:01.239Z,91.13
2023-11-07T00:57:29.147Z,91.45
2023-11-07T00:59:57.260Z,91.25
2023-11-07T01:02:25.256Z,90.82
2023-11-07T01:04:54.213Z,91.14
2023-11-07T01:07:22.093Z,90.98
2023-11-07T01:09:52.376Z,90.97
2023-11-07T01:12:20.500Z,90.99
2023-11-07T01:14:49.125Z,90.91
2023-11-07T01:17:17.453Z,90.82
2023-11-07T01:19:45.507Z,90.90
2023-11-07T01:22:13.340Z,91.01
2023-11-07T01:24:41.543Z,91.13
2023-11-07T01:27:10.913Z,91.86
2023-11-07T01:29:39.147Z,91.96
2023-11-07T01:32:07.610Z,90.48
2023-11-07T01:34:35.739Z,90.21
2023-11-07T01:37:03.789Z,90.88
2023-11-07T01:39:32.023Z,90.64
2023-11-07T01:41:59.950Z,89.86
2023-11-07T01:44:31.468Z,90.33
2023-11-07T01:47:00.582Z,90.72
2023-11-07T01:49:29.490Z,90.95
2023-11-07T01:51:59.104Z,91.14
2023-11-07T01:54:28.314Z,91.30
2023-11-07T01:56:56.349Z,91.28
2023-11-07T01:59:25.248Z,91.54
2023-11-07T02:01:56.857Z,91.83
2023-11-07T02:04:25.995Z,91.71
2023-11-07T02:06:54.166Z,91.72
2023-11-07T02:09:24.016Z,92.14
2023-11-07T02:11:52.053Z,90.86
2023-11-07T02:14:30.295Z,90.86
2023-11-07T02:17:00.221Z,90.92
2023-11-07T02:19:28.262Z,90.63
2023-11-07T02:22:00.286Z,90.60
2023-11-07T02:24:30.303Z,90.80
2023-11-07T02:26:59.581Z,92.17
2023-11-07T02:29:27.969Z,90.64
2023-11-07T02:31:57.554Z,90.98
2023-11-07T02:34:25.579Z,91.04
2023-11-07T02:36:53.993Z,91.09
2023-11-07T02:39:22.619Z,91.04
2023-11-07T02:41:52.084Z,90.98
2023-11-07T02:44:19.966Z,91.10
2023-11-07T02:46:49.361Z,91.23
2023-11-07T02:49:17.668Z,91.20
2023-11-07T02:51:45.709Z,92.28
2023-11-07T02:54:13.872Z,91.17
2023-11-07T02:56:43.746Z,91.37
2023-11-07T02:59:13.047Z,91.49
2023-11-07T03:01:40.917Z,91.52
2023-11-07T03:04:09.172Z,91.49
2023-11-07T03:06:37.373Z,91.34
2023-11-07T03:09:05.994Z,91.04
2023-11-07T03:11:34.068Z,90.93
2023-11-07T03:14:02.318Z,91.02
2023-11-07T03:16:32.044Z,91.12
2023-11-07T03:19:00.218Z,91.20
2023-11-07T03:21:28.196Z,91.22
2023-11-07T03:23:56.284Z,91.29
2023-11-07T03:26:25.262Z,91.42
2023-11-07T03:28:53.306Z,91.37
2023-11-07T03:31:21.498Z,91.44
2023-11-07T03:33:51.096Z,91.51
2023-11-07T03:36:19.122Z,92.64
2023-11-07T03:38:47.165Z,92.02
2023-11-07T03:41:15.259Z,89.55
2023-11-07T03:43:43.469Z,90.27
2023-11-07T03:46:12.325Z,90.66
2023-11-07T03:48:40.636Z,91.08
2023-11-07T03:51:10.229Z,91.08
2023-11-07T03:53:38.286Z,90.98
2023-11-07T03:56:07.195Z,91.10
2023-11-07T03:58:35.253Z,91.07
2023-11-07T04:01:04.305Z,91.31
2023-11-07T04:03:32.484Z,92.64
2023-11-07T04:06:00.631Z,93.19
2023-11-07T04:08:30.084Z,93.35
2023-11-07T04:10:58.133Z,94.00
2023-11-07T04:13:26.083Z,92.59
2023-11-07T04:15:57.444Z,92.68
2023-11-07T04:18:25.910Z,92.37
2023-11-07T04:20:54.256Z,92.94
2023-11-07T04:23:22.128Z,92.84
2023-11-07T04:25:51.697Z,93.01
2023-11-07T04:28:19.608Z,93.04
2023-11-07T04:30:48.048Z,93.03
2023-11-07T04:33:17.082Z,92.60
2023-11-07T04:35:45.670Z,92.72
2023-11-07T04:38:14.438Z,93.13
2023-11-07T04:40:42.618Z,94.17
2023-11-07T04:43:12.040Z,94.34
2023-11-07T04:45:40.245Z,94.35
2023-11-07T04:48:08.433Z,94.82
2023-11-07T04:50:37.909Z,95.25
2023-11-07T04:53:06.161Z,95.10
2023-11-07T04:55:34.308Z,95.52
2023-11-07T04:58:03.339Z,95.25
2023-11-07T05:00:32.551Z,95.33
2023-11-07T05:03:00.947Z,95.24
2023-11-07T05:05:31.707Z,95.32
2023-11-07T05:07:59.890Z,95.19
2023-11-07T05:10:27.777Z,95.39
2023-11-07T05:12:55.946Z,95.57
2023-11-07T05:15:24.057Z,96.84
2023-11-07T05:17:55.551Z,95.61
2023-11-07T05:20:23.820Z,95.23
2023-11-07T05:22:52.029Z,93.81
2023-11-07T05:25:20.243Z,92.90
2023-11-07T05:27:48.099Z,94.28
2023-11-07T05:30:16.223Z,92.85
2023-11-07T05:32:48.094Z,92.58
2023-11-07T05:35:17.915Z,92.71
2023-11-07T05:37:47.002Z,93.23
2023-11-07T05:40:16.782Z,92.27
2023-11-07T05:42:45.299Z,92.77
2023-11-07T05:45:13.959Z,92.22
2023-11-07T05:47:42.670Z,92.25
2023-11-07T05:50:12.704Z,93.27
2023-11-07T05:52:42.293Z,91.66
2023-11-07T05:55:11.654Z,92.16
2023-11-07T05:57:40.598Z,92.28
2023-11-07T06:00:12.344Z,92.16
2023-11-07T06:02:40.523Z,93.07
2023-11-07T06:05:09.211Z,92.54
2023-11-07T06:07:37.350Z,92.43
2023-11-07T06:10:08.870Z,92.99
2023-11-07T06:12:36.817Z,93.47
2023-11-07T06:15:05.448Z,93.39
2023-11-07T06:17:33.772Z,93.51
2023-11-07T06:20:01.793Z,93.01
2023-11-07T06:22:29.728Z,93.06
2023-11-07T06:24:58.038Z,93.21
2023-11-07T06:27:28.035Z,93.63
2023-11-07T06:29:56.151Z,93.92
2023-11-07T06:32:24.341Z,93.24
2023-11-07T06:34:53.169Z,93.09
2023-11-07T06:37:21.213Z,94.25
2023-11-07T06:39:50.709Z,93.95
2023-11-07T06:42:18.919Z,93.24
2023-11-07T06:44:48.495Z,94.02
2023-11-07T06:47:16.403Z,93.40
2023-11-07T06:49:44.671Z,92.55
2023-11-07T06:52:12.757Z,92.66
2023-11-07T06:54:40.751Z,93.48
2023-11-07T06:57:10.047Z,93.15
2023-11-07T06:59:37.768Z,92.18
2023-11-07T07:02:07.618Z,92.33
2023-11-07T07:04:35.887Z,92.91
2023-11-07T07:07:03.960Z,92.12
2023-11-07T07:09:32.121Z,92.40
2023-11-07T07:12:00.310Z,92.96
2023-11-07T07:14:28.199Z,92.17
2023-11-07T07:16:56.429Z,92.65
2023-11-07T07:19:26.427Z,92.42
2023-11-07T07:21:55.230Z,91.85
2023-11-07T07:24:28.976Z,91.63
2023-11-07T07:26:59.491Z,91.87
2023-11-07T07:29:27.975Z,93.12
2023-11-07T07:31:57.704Z,91.15
2023-11-07T07:34:27.801Z,91.73
2023-11-07T07:36:56.716Z,91.45
2023-11-07T07:39:31.938Z,90.62
2023-11-07T07:42:01.520Z,89.86
2023-11-07T07:44:30.987Z,88.35
2023-11-07T07:46:58.985Z,88.55
2023-11-07T07:49:31.553Z,87.86
2023-11-07T07:52:01.293Z,86.19
2023-11-07T07:54:52.494Z,86.32
2023-11-07T07:57:19.052Z,87.59
2023-11-07T07:59:47.488Z,89.39
2023-11-07T08:02:17.072Z,88.57
2023-11-07T08:04:48.015Z,88.47
2023-11-07T08:07:18.299Z,87.67
2023-11-07T08:09:46.548Z,88.42
2023-11-07T08:12:14.843Z,88.82
2023-11-07T08:14:45.555Z,87.77
2023-11-07T08:17:13.552Z,86.99
2023-11-07T08:19:41.418Z,85.32
2023-11-07T08:22:10.984Z,84.61
2023-11-07T08:24:39.692Z,82.98
2023-11-07T08:27:07.809Z,83.96
2023-11-07T08:29:35.694Z,86.35
2023-11-07T08:32:05.579Z,86.37
2023-11-07T08:34:34.164Z,86.43
2023-11-07T08:37:09.009Z,83.65
2023-11-07T08:39:42.475Z,82.31
2023-11-07T08:42:11.901Z,80.48
2023-11-07T08:44:41.470Z,77.99
2023-11-07T08:47:09.355Z,80.20
2023-11-07T08:49:39.097Z,80.59
2023-11-07T08:52:07.558Z,82.45
2023-11-07T08:54:37.675Z,83.95
2023-11-07T08:57:08.125Z,83.77
2023-11-07T08:59:37.836Z,83.80
2023-11-07T09:02:06.190Z,84.25
2023-11-07T09:04:34.455Z,85.56
2023-11-07T09:07:04.087Z,86.15
2023-11-07T09:09:32.283Z,85.77
2023-11-07T09:12:00.247Z,86.86
2023-11-07T09:14:30.343Z,86.46
2023-11-07T09:16:58.394Z,86.19
2023-11-07T09:19:26.662Z,86.93
2023-11-07T09:21:54.672Z,86.97
2023-11-07T09:24:22.657Z,87.30
2023-11-07T09:26:50.933Z,87.85
2023-11-07T09:29:18.966Z,87.39
2023-11-07T09:31:49.764Z,87.02
2023-11-07T09:34:17.990Z,86.90
2023-11-07T09:36:46.959Z,87.46
2023-11-07T09:39:15.191Z,86.50
2023-11-07T09:41:44.436Z,86.66
2023-11-07T09:44:12.923Z,87.17
2023-11-07T09:46:42.283Z,86.59
2023-11-07T09:49:13.884Z,86.11
2023-11-07T09:51:42.150Z,85.89
2023-11-07T09:54:10.150Z,85.56
2023-11-07T09:56:41.500Z,85.03
2023-11-07T09:59:23.869Z,85.69
2023-11-07T10:01:52.379Z,85.09
2023-11-07T10:04:24.276Z,85.47
2023-11-07T10:06:52.466Z,85.55
2023-11-07T10:09:22.455Z,85.63
2023-11-07T10:11:51.901Z,85.52
2023-11-07T10:14:21.340Z,84.91
2023-11-07T10:16:52.686Z,85.29
2023-11-07T10:19:23.693Z,84.47
2023-11-07T10:21:52.967Z,85.42
2023-11-07T10:24:21.612Z,84.80
2023-11-07T10:26:54.883Z,84.29
2023-11-07T10:29:31.938Z,83.84
2023-11-07T10:32:02.203Z,83.48
2023-11-07T10:34:32.744Z,82.98
2023-11-07T10:37:01.514Z,82.59
2023-11-07T10:39:31.816Z,81.76
2023-11-07T10:42:18.627Z,81.93
2023-11-07T10:44:49.802Z,82.90
2023-11-07T10:47:21.056Z,81.92
2023-11-07T10:49:52.977Z,81.24
2023-11-07T10:52:21.646Z,81.35
2023-11-07T10:54:49.992Z,80.11
2023-11-07T10:57:23.890Z,80.35
2023-11-07T10:59:57.469Z,79.84
2023-11-07T11:02:28.672Z,80.22
2023-11-07T11:05:01.865Z,81.24
2023-11-07T11:07:31.022Z,80.83
2023-11-07T11:10:02.259Z,81.32
2023-11-07T11:12:30.650Z,81.99
2023-11-07T11:14:58.732Z,82.48
2023-11-07T11:17:35.084Z,82.99
2023-11-07T11:20:12.754Z,82.11
2023-11-07T11:22:46.984Z,81.86
2023-11-07T11:25:25.540Z,82.07
2023-11-07T11:28:00.971Z,82.10
2023-11-07T11:30:29.872Z,81.73
2023-11-07T11:33:08.802Z,81.66
2023-11-07T11:35:41.297Z,81.84
2023-11-07T11:38:12.103Z,80.56
2023-11-07T11:40:58.533Z,81.62
2023-11-07T11:43:28.651Z,81.93
2023-11-07T11:46:00.054Z,82.10
2023-11-07T11:49:06.812Z,81.49
2023-11-07T11:51:38.545Z,82.53
2023-11-07T11:54:08.086Z,82.58
2023-11-07T11:56:36.600Z,82.63
2023-11-07T11:59:10.567Z,82.37
2023-11-07T12:01:53.588Z,82.63
2023-11-07T12:04:30.110Z,82.64
2023-11-07T12:07:26.888Z,82.07
2023-11-07T12:09:59.190Z,81.49
2023-11-07T12:12:27.463Z,81.53
2023-11-07T12:14:58.039Z,81.10
2023-11-07T12:17:28.588Z,81.41
2023-11-07T12:20:15.646Z,80.41
2023-11-07T12:22:47.741Z,81.30
2023-11-07T12:25:18.682Z,80.07
2023-11-07T12:28:03.687Z,80.74
2023-11-07T12:30:32.535Z,80.19
2023-11-07T12:33:02.175Z,80.39
2023-11-07T12:35:30.969Z,81.05
2023-11-07T12:38:04.608Z,81.55
2023-11-07T12:40:34.396Z,81.70
2023-11-07T12:43:02.572Z,81.80
2023-11-07T12:45:32.532Z,82.09
2023-11-07T12:48:05.324Z,82.10
2023-11-07T12:50:34.923Z,81.59
2023-11-07T12:53:07.241Z,81.30
2023-11-07T12:55:36.989Z,81.80
2023-11-07T12:58:06.557Z,81.82
2023-11-07T13:00:49.396Z,82.67
2023-11-07T13:03:23.544Z,82.47
2023-11-07T13:05:59.463Z,81.44
2023-11-07T13:08:29.956Z,81.80
2023-11-07T13:11:15.429Z,82.13
2023-11-07T13:13:44.465Z,82.72
2023-11-07T13:16:12.552Z,82.64
2023-11-07T13:18:46.282Z,82.62
2023-11-07T13:21:14.809Z,82.86
2023-11-07T13:23:44.499Z,83.40
2023-11-07T13:26:12.799Z,83.61
2023-11-07T13:28:42.163Z,83.54
2023-11-07T13:31:12.029Z,83.08
2023-11-07T13:33:42.151Z,82.90
2023-11-07T13:36:10.658Z,82.82
2023-11-07T13:38:38.657Z,83.36
2023-11-07T13:41:08.951Z,83.35
2023-11-07T13:43:36.877Z,83.53
2023-11-07T13:46:06.135Z,83.97
2023-11-07T13:48:35.134Z,85.04
2023-11-07T13:51:03.761Z,86.33
2023-11-07T13:53:32.949Z,86.75
2023-11-07T13:56:01.376Z,87.86
2023-11-07T13:58:31.100Z,88.91
2023-11-07T14:00:59.056Z,88.16
2023-11-07T14:03:28.898Z,88.79
2023-11-07T14:05:57.063Z,89.22
2023-11-07T14:08:25.186Z,89.23
2023-11-07T14:10:53.906Z,89.18
2023-11-07T14:13:21.852Z,89.23
2023-11-07T14:15:53.110Z,89.29
2023-11-07T14:18:27.098Z,88.54
2023-11-07T14:20:59.486Z,87.62
2023-11-07T14:23:29.495Z,88.05
2023-11-07T14:25:59.591Z,88.52
2023-11-07T14:28:28.067Z,87.78
2023-11-07T14:31:00.471Z,87.50
2023-11-07T14:33:31.857Z,88.12
2023-11-07T14:36:00.645Z,87.71
2023-11-07T14:38:30.420Z,88.31
2023-11-07T14:40:58.962Z,88.54
2023-11-07T14:43:26.886Z,87.26
2023-11-07T14:45:55.346Z,86.96
2023-11-07T14:48:24.783Z,86.78
2023-11-07T14:50:54.522Z,87.26
2023-11-07T14:53:24.575Z,87.45
2023-11-07T14:55:53.709Z,87.93
2023-11-07T14:58:23.245Z,88.25
2023-11-07T15:00:52.614Z,88.00
2023-11-07T15:03:20.864Z,88.09
2023-11-07T15:05:51.439Z,87.95
2023-11-07T15:08:20.944Z,88.18
2023-11-07T15:10:48.996Z,88.38
2023-11-07T15:13:16.867Z,88.01
2023-11-07T15:15:45.222Z,88.25
2023-11-07T15:18:13.265Z,88.08
2023-11-07T15:20:43.795Z,88.37
2023-11-07T15:23:13.359Z,88.14
2023-11-07T15:25:41.769Z,88.35
2023-11-07T15:30:56.704Z,88.60
2023-11-07T15:33:25.110Z,88.91
2023-11-07T15:35:53.151Z,88.95
2023-11-07T15:38:22.634Z,88.89
2023-11-07T15:40:50.751Z,88.71
2023-11-07T15:43:18.667Z,88.74
2023-11-07T15:45:46.552Z,89.03
2023-11-07T15:48:14.788Z,89.13
2023-11-07T15:50:43.179Z,89.25
2023-11-07T15:53:12.426Z,89.33
2023-11-07T15:55:42.815Z,89.16
2023-11-07T15:58:12.052Z,89.56
2023-11-07T16:00:40.260Z,89.81
2023-11-07T16:03:08.361Z,89.89
2023-11-07T16:05:38.849Z,90.03
2023-11-07T16:08:08.674Z,89.84
2023-11-07T16:10:37.873Z,90.13
2023-11-07T16:13:10.625Z,90.24
2023-11-07T16:15:39.749Z,90.27
2023-11-07T16:18:07.817Z,90.35
2023-11-07T16:20:36.485Z,90.63
2023-11-07T16:23:05.352Z,90.82
2023-11-07T16:25:33.489Z,90.92
2023-11-07T16:28:03.985Z,91.11
2023-11-07T16:30:35.268Z,91.37
2023-11-07T16:33:03.455Z,91.69
2023-11-07T16:35:31.406Z,91.85
2023-11-07T16:37:59.560Z,92.01
2023-11-07T16:40:27.423Z,92.18
2023-11-07T16:42:55.734Z,92.37
2023-11-07T16:45:24.481Z,92.35
2023-11-07T16:47:54.080Z,92.46
2023-11-07T16:50:22.682Z,92.75
2023-11-07T16:52:51.105Z,92.93
2023-11-07T16:55:19.999Z,93.21
2023-11-07T16:57:48.312Z,93.18
2023-11-07T17:00:19.724Z,93.24
2023-11-07T17:02:49.255Z,93.17
2023-11-07T17:05:19.829Z,92.98
2023-11-07T17:07:47.834Z,92.76
2023-11-07T17:10:16.613Z,92.86
2023-11-07T17:12:44.908Z,92.79
2023-11-07T17:15:13.870Z,92.53
2023-11-07T17:17:45.508Z,92.56
2023-11-07T17:20:14.543Z,92.93
2023-11-07T17:22:44.096Z,92.69
2023-11-07T17:25:11.803Z,93.01
2023-11-07T17:27:39.987Z,93.17
2023-11-07T17:30:09.742Z,93.48
2023-11-07T17:32:38.918Z,93.52
2023-11-07T17:35:07.516Z,93.36
2023-11-07T17:37:35.773Z,93.31
2023-11-07T17:40:07.650Z,93.53
2023-11-07T17:42:35.798Z,93.67
2023-11-07T17:45:05.648Z,93.63
2023-11-07T17:47:34.467Z,93.62
2023-11-07T17:50:03.035Z,93.41
2023-11-07T17:52:31.413Z,93.59
2023-11-07T17:55:00.330Z,93.70
2023-11-07T17:57:30.626Z,93.71
2023-11-07T17:59:59.201Z,93.57
2023-11-07T18:02:27.683Z,93.51
2023-11-07T18:04:55.867Z,93.43
2023-11-07T18:07:24.201Z,93.44
2023-11-07T18:09:52.470Z,93.65
2023-11-07T18:12:21.258Z,93.67
2023-11-07T18:14:50.869Z,93.62
2023-11-07T18:17:20.157Z,93.56
2023-11-07T18:19:49.086Z,93.63
2023-11-07T18:22:17.363Z,93.48
2023-11-07T18:24:45.786Z,93.56
2023-11-07T18:27:14.298Z,93.58
2023-11-07T18:29:43.412Z,93.54
2023-11-07T18:32:13.157Z,93.60
2023-11-07T18:34:41.588Z,93.68
2023-11-07T18:37:10.628Z,93.85
2023-11-07T18:39:40.518Z,94.07
2023-11-07T18:42:09.372Z,94.28
2023-11-07T18:44:41.850Z,94.56
2023-11-07T18:47:10.187Z,94.57
2023-11-07T18:49:39.827Z,94.69
2023-11-07T18:52:07.832Z,94.84
2023-11-07T18:54:36.154Z,94.78
2023-11-07T18:57:05.369Z,94.89
2023-11-07T18:59:37.503Z,94.98
2023-11-07T19:02:07.728Z,94.66
2023-11-07T19:04:37.984Z,94.71
2023-11-07T19:07:09.061Z,94.26
2023-11-07T19:09:37.459Z,94.30
2023-11-07T19:12:05.865Z,94.47
2023-11-07T19:14:34.646Z,94.28
2023-11-07T19:17:02.907Z,94.13
2023-11-07T19:19:30.948Z,93.87
2023-11-07T19:21:59.867Z,93.80
2023-11-07T19:24:29.619Z,93.94
2023-11-07T19:26:59.140Z,93.98
2023-11-07T19:29:29.025Z,93.66
2023-11-07T19:31:57.013Z,93.48
2023-11-07T19:34:25.714Z,93.52
2023-11-07T19:36:56.399Z,93.46
2023-11-07T19:39:26.759Z,93.54
2023-11-07T19:42:02.312Z,93.60
2023-11-07T19:44:30.648Z,93.56
2023-11-07T19:46:58.910Z,93.62
2023-11-07T19:49:28.926Z,93.72
2023-11-07T19:51:59.018Z,93.83
2023-11-07T19:54:27.995Z,93.88
2023-11-07T19:56:57.495Z,93.72
2023-11-07T19:59:25.371Z,93.59
2023-11-07T20:01:53.659Z,93.60
2023-11-07T20:04:22.918Z,93.76
2023-11-07T20:06:51.381Z,93.82
2023-11-07T20:09:19.878Z,93.87
2023-11-07T20:11:50.024Z,93.92
2023-11-07T20:14:19.806Z,93.90
2023-11-07T20:16:48.340Z,93.77
2023-11-07T20:19:33.108Z,93.89
2023-11-07T20:22:01.082Z,93.87
2023-11-07T20:24:29.040Z,93.96
2023-11-07T20:26:59.222Z,94.00
2023-11-07T20:29:29.603Z,94.03
2023-11-07T20:31:59.809Z,94.13
2023-11-07T20:34:49.469Z,94.24
2023-11-07T20:37:17.594Z,94.21
2023-11-07T20:39:45.506Z,94.26
2023-11-07T20:42:13.760Z,94.20
2023-11-07T20:47:29.963Z,93.95
2023-11-07T20:49:59.065Z,93.81
2023-11-07T20:52:28.898Z,93.55
2023-11-07T20:54:57.195Z,93.43
2023-11-07T20:57:25.866Z,93.45
2023-11-07T20:59:55.347Z,93.48
2023-11-07T21:02:24.219Z,93.22
2023-11-07T21:04:55.334Z,93.32
2023-11-07T21:07:23.901Z,93.27
2023-11-07T21:09:52.324Z,93.22
2023-11-07T21:12:21.108Z,92.96
2023-11-07T21:14:51.397Z,92.92
2023-11-07T21:17:20.759Z,92.74
2023-11-07T21:19:48.953Z,92.86
2023-11-07T21:22:16.915Z,92.94
2023-11-07T21:24:44.897Z,92.93
2023-11-07T21:27:14.174Z,92.78
2023-11-07T21:29:42.357Z,92.69
2023-11-07T21:32:11.120Z,92.44
2023-11-07T21:34:42.027Z,92.45
2023-11-07T21:37:11.616Z,92.39
2023-11-07T21:39:40.716Z,92.33
2023-11-07T21:42:10.909Z,92.28
2023-11-07T21:44:38.932Z,92.28
2023-11-07T21:47:06.923Z,92.35
2023-11-07T21:49:34.951Z,92.50
2023-11-07T21:52:05.249Z,92.48
2023-11-07T21:54:33.272Z,92.59
2023-11-07T21:57:01.787Z,92.75
2023-11-07T21:59:29.882Z,92.81
2023-11-07T22:01:57.838Z,92.81
2023-11-07T22:04:25.860Z,92.75
2023-11-07T22:06:55.231Z,92.98
2023-11-07T22:09:25.075Z,93.11
2023-11-07T22:11:53.306Z,93.50
2023-11-07T22:14:21.278Z,93.35
2023-11-07T22:16:49.836Z,93.46
2023-11-07T22:19:17.761Z,93.42
2023-11-07T22:21:45.715Z,93.34
2023-11-07T22:24:14.057Z,93.25
2023-11-07T22:26:44.258Z,92.90
2023-11-07T22:29:12.201Z,92.93
2023-11-07T22:31:40.531Z,92.51
2023-11-07T22:34:08.543Z,92.61
2023-11-07T22:36:36.739Z,92.60
2023-11-07T22:39:06.243Z,92.56
2023-11-07T22:41:34.214Z,92.42
2023-11-07T22:44:03.629Z,92.39
2023-11-07T22:46:31.572Z,92.25
2023-11-07T22:48:59.774Z,92.35
2023-11-07T22:51:27.955Z,92.36
2023-11-07T22:53:55.863Z,92.49
2023-11-07T22:56:24.151Z,92.48
2023-11-07T22:58:52.090Z,92.13
2023-11-07T23:01:21.913Z,92.28
2023-11-07T23:03:49.915Z,92.43
2023-11-07T23:06:18.122Z,92.69
2023-11-07T23:08:46.075Z,92.79
2023-11-07T23:11:14.137Z,92.54
2023-11-07T23:13:42.084Z,92.67
2023-11-07T23:16:10.261Z,92.97
2023-11-07T23:18:42.246Z,92.99
2023-11-07T23:21:12.958Z,93.19
2023-11-07T23:23:40.866Z,93.33
2023-11-07T23:26:09.864Z,93.46
2023-11-07T23:28:38.055Z,93.58
2023-11-07T23:31:06.137Z,93.68
2023-11-07T23:33:34.124Z,93.71
2023-11-07T23:36:04.038Z,93.79
2023-11-07T23:38:32.425Z,93.67
2023-11-07T23:41:00.294Z,93.82
2023-11-07T23:43:28.188Z,93.94
2023-11-07T23:45:56.090Z,94.14
2023-11-07T23:48:24.641Z,93.91
2023-11-07T23:50:53.255Z,93.54
2023-11-07T23:53:22.697Z,93.28
2023-11-07T23:55:50.660Z,93.15
2023-11-07T23:58:37.018Z,93.17
